Piney Bluff, Georgia
Current Conditions -  °F | °C
As of 9:53 PM on Wednesday 24 Dec 2014 (Local Time) from KSSI Reporting Station
Overcast Overcast  
Wind Chill: 67°   Ceiling: 7000
Heat Index: 67°   Visibility: 10mi
Dew Point: 65°   Wind: 13mph
Humidity: 93%   Direction: 230°SW
Pressure: 29.85"   Gusts: NA
Location:  31.0438°N, 81.5786°W
Report Text: KSSI 250253Z AUTO 23011KT 10SM FEW011 OVC070 19/18 A2985 RMK AO2 RAB37E46 SLP108 P0000 60000 T01940183 53017
Loading
Personal Weather Stations






























Interactive Weather Map New forecast layout! Learn more

10-Day Weather Forecast

Advertisements
Track Severe Weather on mobile